San Luis County Regional Airport San Luis Obispo US
ICAO: KSBP
IATA: SBP
Category: Medium
Scheduled Services: Yes

Elevation: 212 ft
TransAlt. 18000 ft.

Airport Communications:
SANTA BARB APP/DEP:127.725
ATIS:120.6
CTAF:124
GND:121.6
TWR:124
UNICOM:122.95

KSBP Zoom In..

If you have problems with the map follow the link
https://www.worldairports.se/pages/airport.php?
ICAO=KSBP

Runways:

(A) RW 07 length 2500 ft width 100 ft
---- / hdg 74

(B) RW 11 length 6100 ft width 150 ft
ILS 109.70 / hdg 110

(C) RW 25 length 2500 ft width 100 ft
---- / hdg 254

(D) RW 29 length 6100 ft width 150 ft
---- / hdg 290

Location; KSBP
Day. 12 / Time. 08.56 Zulu
* Altimeter: 30.25
* Temperature: 11° c. 51.8°f.
* Wind from: 130° Speed 03 kn.
Dewpoint: 11° c.
Visibility: 1/4 Statute Miles.
Conditions: Fog.

KSBP 120856Z AUTO 13003KT 1/4SM FG VV002 11/11 A3025 RMK AO2 SLP242 T01060106 51005


Wind From 130°
Speed 03 kn.

 
 
jpsmedia worldairports.se 2019   terms of use